sensor_id;sensor_type;location;lat;lon;timestamp;pressure;altitude;pressure_sealevel;temperature;humidity
47750;BME280;49810;48.160;10.812;2024-02-28T00:00:15;95076.16;;;5.92;83.69
47750;BME280;49810;48.160;10.812;2024-02-28T00:01:17;95079.81;;;5.94;83.29
47750;BME280;49810;48.160;10.812;2024-02-28T00:02:20;95077.28;;;5.85;84.20
47750;BME280;49810;48.160;10.812;2024-02-28T00:03:22;95083.13;;;5.89;84.23
47750;BME280;49810;48.160;10.812;2024-02-28T00:04:27;95076.63;;;5.90;84.08
47750;BME280;49810;48.160;10.812;2024-02-28T00:05:30;95086.44;;;5.84;84.42
47750;BME280;49810;48.160;10.812;2024-02-28T00:06:34;95087.34;;;5.81;84.28
47750;BME280;49810;48.160;10.812;2024-02-28T00:07:36;95084.09;;;5.72;84.34
47750;BME280;49810;48.160;10.812;2024-02-28T00:08:39;95090.19;;;5.78;84.46
47750;BME280;49810;48.160;10.812;2024-02-28T00:09:42;95087.75;;;5.74;84.59
47750;BME280;49810;48.160;10.812;2024-02-28T00:10:45;95087.53;;;5.78;84.97
47750;BME280;49810;48.160;10.812;2024-02-28T00:11:47;95092.31;;;5.73;84.41
47750;BME280;49810;48.160;10.812;2024-02-28T00:12:50;95090.66;;;5.76;85.10
47750;BME280;49810;48.160;10.812;2024-02-28T00:13:52;95097.69;;;5.79;84.85
47750;BME280;49810;48.160;10.812;2024-02-28T00:14:55;95093.59;;;5.78;84.90
47750;BME280;49810;48.160;10.812;2024-02-28T00:15:57;95088.47;;;5.75;84.63
47750;BME280;49810;48.160;10.812;2024-02-28T00:17:00;95101.66;;;5.69;85.08
47750;BME280;49810;48.160;10.812;2024-02-28T00:18:03;95095.56;;;5.63;84.92
47750;BME280;49810;48.160;10.812;2024-02-28T00:19:06;95100.91;;;5.68;85.13
47750;BME280;49810;48.160;10.812;2024-02-28T00:20:10;95096.56;;;5.66;85.56
47750;BME280;49810;48.160;10.812;2024-02-28T00:21:14;95103.53;;;5.63;85.26
47750;BME280;49810;48.160;10.812;2024-02-28T00:22:16;95103.66;;;5.74;85.40
47750;BME280;49810;48.160;10.812;2024-02-28T00:23:19;95104.78;;;5.68;85.25
47750;BME280;49810;48.160;10.812;2024-02-28T00:24:21;95104.56;;;5.71;85.20
47750;BME280;49810;48.160;10.812;2024-02-28T00:25:25;95101.25;;;5.76;85.29
47750;BME280;49810;48.160;10.812;2024-02-28T00:26:27;95091.50;;;5.68;84.57
47750;BME280;49810;48.160;10.812;2024-02-28T00:27:33;95105.22;;;5.81;84.36
47750;BME280;49810;48.160;10.812;2024-02-28T00:28:36;95098.06;;;5.87;84.18
47750;BME280;49810;48.160;10.812;2024-02-28T00:29:38;95108.78;;;5.78;84.61
47750;BME280;49810;48.160;10.812;2024-02-28T00:30:41;95108.41;;;5.85;84.76
47750;BME280;49810;48.160;10.812;2024-02-28T00:31:44;95098.97;;;5.84;84.36
47750;BME280;49810;48.160;10.812;2024-02-28T00:32:46;95103.63;;;5.89;84.54
47750;BME280;49810;48.160;10.812;2024-02-28T00:33:49;95108.28;;;5.94;84.01
47750;BME280;49810;48.160;10.812;2024-02-28T00:34:53;95109.00;;;5.94;83.93
47750;BME280;49810;48.160;10.812;2024-02-28T00:35:57;95105.78;;;5.85;84.21
47750;BME280;49810;48.160;10.812;2024-02-28T00:36:59;95110.97;;;5.79;84.16
47750;BME280;49810;48.160;10.812;2024-02-28T00:38:03;95108.22;;;5.88;84.07
47750;BME280;49810;48.160;10.812;2024-02-28T00:39:05;95115.28;;;5.77;84.34
47750;BME280;49810;48.160;10.812;2024-02-28T00:40:09;95109.88;;;5.71;84.22
47750;BME280;49810;48.160;10.812;2024-02-28T00:41:11;95116.94;;;5.74;85.10
47750;BME280;49810;48.160;10.812;2024-02-28T00:42:14;95114.44;;;5.85;84.80
47750;BME280;49810;48.160;10.812;2024-02-28T00:43:17;95112.00;;;5.82;84.23
47750;BME280;49810;48.160;10.812;2024-02-28T00:44:20;95112.28;;;5.69;84.66
47750;BME280;49810;48.160;10.812;2024-02-28T00:45:22;95115.94;;;5.72;84.94
47750;BME280;49810;48.160;10.812;2024-02-28T00:46:24;95113.38;;;5.77;84.93
47750;BME280;49810;48.160;10.812;2024-02-28T00:47:27;95112.06;;;5.72;84.16
47750;BME280;49810;48.160;10.812;2024-02-28T00:48:29;95115.38;;;5.68;84.57
47750;BME280;49810;48.160;10.812;2024-02-28T00:49:31;95092.16;;;5.63;84.70
47750;BME280;49810;48.160;10.812;2024-02-28T00:50:34;95109.16;;;5.71;84.59
47750;BME280;49810;48.160;10.812;2024-02-28T00:51:38;95105.66;;;5.79;84.80
47750;BME280;49810;48.160;10.812;2024-02-28T00:52:41;95110.72;;;5.77;84.12
47750;BME280;49810;48.160;10.812;2024-02-28T00:53:43;95118.50;;;5.66;84.86
47750;BME280;49810;48.160;10.812;2024-02-28T00:54:46;95112.06;;;5.72;85.43
47750;BME280;49810;48.160;10.812;2024-02-28T00:55:48;95109.16;;;5.71;84.96
47750;BME280;49810;48.160;10.812;2024-02-28T00:56:53;95116.13;;;5.68;85.30
47750;BME280;49810;48.160;10.812;2024-02-28T00:57:55;95122.34;;;5.65;85.28
47750;BME280;49810;48.160;10.812;2024-02-28T00:58:58;95113.47;;;5.68;85.09
47750;BME280;49810;48.160;10.812;2024-02-28T01:00:00;95122.53;;;5.62;85.62
47750;BME280;49810;48.160;10.812;2024-02-28T01:01:04;95115.50;;;5.58;85.48
47750;BME280;49810;48.160;10.812;2024-02-28T01:02:06;95126.00;;;5.68;85.94
47750;BME280;49810;48.160;10.812;2024-02-28T01:03:10;95126.53;;;5.72;85.61
47750;BME280;49810;48.160;10.812;2024-02-28T01:04:12;95127.75;;;5.71;85.96
47750;BME280;49810;48.160;10.812;2024-02-28T01:05:16;95118.31;;;5.70;84.98
47750;BME280;49810;48.160;10.812;2024-02-28T01:06:21;95129.94;;;5.72;85.60
47750;BME280;49810;48.160;10.812;2024-02-28T01:07:26;95135.72;;;5.71;85.75
47750;BME280;49810;48.160;10.812;2024-02-28T01:08:29;95127.00;;;5.70;85.98
47750;BME280;49810;48.160;10.812;2024-02-28T01:09:32;95130.31;;;5.65;85.74
47750;BME280;49810;48.160;10.812;2024-02-28T01:10:34;95139.00;;;5.66;86.10
47750;BME280;49810;48.160;10.812;2024-02-28T01:11:38;95143.22;;;5.72;86.00
47750;BME280;49810;48.160;10.812;2024-02-28T01:12:40;95144.94;;;5.75;86.39
47750;BME280;49810;48.160;10.812;2024-02-28T01:13:43;95157.66;;;5.71;85.60
47750;BME280;49810;48.160;10.812;2024-02-28T01:14:47;95145.31;;;5.68;85.86
47750;BME280;49810;48.160;10.812;2024-02-28T01:15:49;95151.44;;;5.74;85.45
47750;BME280;49810;48.160;10.812;2024-02-28T01:16:52;95150.03;;;5.93;84.71
47750;BME280;49810;48.160;10.812;2024-02-28T01:17:54;95155.38;;;6.13;83.91
47750;BME280;49810;48.160;10.812;2024-02-28T01:18:57;95153.94;;;5.98;84.57
47750;BME280;49810;48.160;10.812;2024-02-28T01:20:00;95164.16;;;5.85;84.89
47750;BME280;49810;48.160;10.812;2024-02-28T01:21:03;95168.19;;;5.80;84.62
47750;BME280;49810;48.160;10.812;2024-02-28T01:22:05;95168.00;;;5.84;85.25
47750;BME280;49810;48.160;10.812;2024-02-28T01:23:09;95168.81;;;5.90;85.61
47750;BME280;49810;48.160;10.812;2024-02-28T01:24:12;95168.53;;;5.88;85.19
47750;BME280;49810;48.160;10.812;2024-02-28T01:25:15;95164.50;;;5.78;85.37
47750;BME280;49810;48.160;10.812;2024-02-28T01:26:17;95172.94;;;5.76;85.34
47750;BME280;49810;48.160;10.812;2024-02-28T01:27:22;95171.47;;;5.75;85.82
47750;BME280;49810;48.160;10.812;2024-02-28T01:28:24;95168.09;;;5.75;85.89
47750;BME280;49810;48.160;10.812;2024-02-28T01:29:28;95171.13;;;5.82;85.62
47750;BME280;49810;48.160;10.812;2024-02-28T01:30:30;95166.34;;;5.72;85.66
47750;BME280;49810;48.160;10.812;2024-02-28T01:31:33;95168.81;;;5.75;85.85
47750;BME280;49810;48.160;10.812;2024-02-28T01:32:35;95172.56;;;5.68;85.24
47750;BME280;49810;48.160;10.812;2024-02-28T01:33:38;95170.66;;;5.69;85.50
47750;BME280;49810;48.160;10.812;2024-02-28T01:34:42;95179.81;;;5.68;85.30
47750;BME280;49810;48.160;10.812;2024-02-28T01:35:45;95186.03;;;5.80;85.02
47750;BME280;49810;48.160;10.812;2024-02-28T01:36:47;95185.19;;;5.88;84.76
47750;BME280;49810;48.160;10.812;2024-02-28T01:37:50;95188.41;;;5.78;85.15
47750;BME280;49810;48.160;10.812;2024-02-28T01:38:54;95174.78;;;5.85;84.96
47750;BME280;49810;48.160;10.812;2024-02-28T01:39:56;95189.19;;;5.98;84.04
47750;BME280;49810;48.160;10.812;2024-02-28T01:40:59;95189.88;;;6.13;83.88
47750;BME280;49810;48.160;10.812;2024-02-28T01:42:01;95188.88;;;6.11;83.52
47750;BME280;49810;48.160;10.812;2024-02-28T01:43:07;95168.63;;;5.93;83.35
47750;BME280;49810;48.160;10.812;2024-02-28T01:44:09;95186.53;;;5.98;83.71
47750;BME280;49810;48.160;10.812;2024-02-28T01:45:13;95181.34;;;5.89;84.50
47750;BME280;49810;48.160;10.812;2024-02-28T01:46:21;95184.28;;;5.77;84.46
47750;BME280;49810;48.160;10.812;2024-02-28T01:47:26;95188.22;;;5.81;85.11
47750;BME280;49810;48.160;10.812;2024-02-28T01:48:28;95185.13;;;5.83;84.87
47750;BME280;49810;48.160;10.812;2024-02-28T01:49:32;95187.13;;;5.73;84.98
47750;BME280;49810;48.160;10.812;2024-02-28T01:50:35;95185.59;;;5.67;85.47
47750;BME280;49810;48.160;10.812;2024-02-28T01:51:38;95189.34;;;5.60;85.44
47750;BME280;49810;48.160;10.812;2024-02-28T01:52:41;95188.22;;;5.81;84.70
47750;BME280;49810;48.160;10.812;2024-02-28T01:53:45;95189.50;;;5.86;84.52
47750;BME280;49810;48.160;10.812;2024-02-28T01:54:49;95193.50;;;5.96;84.65
47750;BME280;49810;48.160;10.812;2024-02-28T01:55:53;95184.25;;;5.91;84.55
47750;BME280;49810;48.160;10.812;2024-02-28T01:56:56;95193.41;;;6.05;84.20
47750;BME280;49810;48.160;10.812;2024-02-28T01:57:59;95193.22;;;5.94;84.01
47750;BME280;49810;48.160;10.812;2024-02-28T01:59:01;95194.22;;;5.96;83.77
47750;BME280;49810;48.160;10.812;2024-02-28T02:00:06;95193.00;;;5.77;84.50
47750;BME280;49810;48.160;10.812;2024-02-28T02:01:10;95193.44;;;5.76;84.97
47750;BME280;49810;48.160;10.812;2024-02-28T02:02:14;95203.91;;;5.65;85.23
47750;BME280;49810;48.160;10.812;2024-02-28T02:03:17;95185.50;;;5.61;85.29
47750;BME280;49810;48.160;10.812;2024-02-28T02:04:20;95194.91;;;5.77;85.00
47750;BME280;49810;48.160;10.812;2024-02-28T02:05:22;95200.22;;;5.77;85.33
47750;BME280;49810;48.160;10.812;2024-02-28T02:06:25;95186.53;;;5.49;85.41
47750;BME280;49810;48.160;10.812;2024-02-28T02:07:27;95195.03;;;5.53;86.00
47750;BME280;49810;48.160;10.812;2024-02-28T02:08:31;95191.56;;;5.47;86.36
47750;BME280;49810;48.160;10.812;2024-02-28T02:09:34;95190.00;;;5.41;86.36
47750;BME280;49810;48.160;10.812;2024-02-28T02:10:39;95191.81;;;5.49;86.34
47750;BME280;49810;48.160;10.812;2024-02-28T02:11:41;95190.78;;;5.61;86.15
47750;BME280;49810;48.160;10.812;2024-02-28T02:12:44;95190.00;;;5.55;85.88
47750;BME280;49810;48.160;10.812;2024-02-28T02:13:49;95180.59;;;5.40;86.40
47750;BME280;49810;48.160;10.812;2024-02-28T02:14:52;95181.88;;;5.44;86.26
47750;BME280;49810;48.160;10.812;2024-02-28T02:15:55;95176.72;;;5.55;86.21
47750;BME280;49810;48.160;10.812;2024-02-28T02:16:57;95183.22;;;5.54;85.66
47750;BME280;49810;48.160;10.812;2024-02-28T02:18:00;95183.50;;;5.42;86.20
47750;BME280;49810;48.160;10.812;2024-02-28T02:19:03;95180.84;;;5.42;86.11
47750;BME280;49810;48.160;10.812;2024-02-28T02:20:10;95183.06;;;5.43;86.61
47750;BME280;49810;48.160;10.812;2024-02-28T02:21:17;95173.44;;;5.31;86.72
47750;BME280;49810;48.160;10.812;2024-02-28T02:22:20;95185.72;;;5.43;86.51
47750;BME280;49810;48.160;10.812;2024-02-28T02:23:25;95175.38;;;5.45;86.57
47750;BME280;49810;48.160;10.812;2024-02-28T02:24:27;95167.97;;;5.35;86.08
47750;BME280;49810;48.160;10.812;2024-02-28T02:25:30;95184.06;;;5.46;86.24
47750;BME280;49810;48.160;10.812;2024-02-28T02:26:32;95181.88;;;5.44;85.84
47750;BME280;49810;48.160;10.812;2024-02-28T02:27:36;95174.94;;;5.32;86.55
47750;BME280;49810;48.160;10.812;2024-02-28T02:28:38;95175.56;;;5.27;86.42
47750;BME280;49810;48.160;10.812;2024-02-28T02:29:41;95175.38;;;5.31;86.75
47750;BME280;49810;48.160;10.812;2024-02-28T02:30:43;95168.97;;;5.22;86.59
47750;BME280;49810;48.160;10.812;2024-02-28T02:31:47;95178.59;;;5.35;86.11
47750;BME280;49810;48.160;10.812;2024-02-28T02:32:49;95168.06;;;5.26;86.43
47750;BME280;49810;48.160;10.812;2024-02-28T02:33:52;95175.03;;;5.23;86.82
47750;BME280;49810;48.160;10.812;2024-02-28T02:34:54;95181.53;;;5.22;86.54
47750;BME280;49810;48.160;10.812;2024-02-28T02:35:58;95167.53;;;5.22;86.45
47750;BME280;49810;48.160;10.812;2024-02-28T02:37:00;95180.78;;;5.22;86.49
47750;BME280;49810;48.160;10.812;2024-02-28T02:38:03;95172.09;;;5.21;86.64
47750;BME280;49810;48.160;10.812;2024-02-28T02:39:07;95182.69;;;5.21;86.53
47750;BME280;49810;48.160;10.812;2024-02-28T02:40:11;95186.63;;;5.26;86.47
47750;BME280;49810;48.160;10.812;2024-02-28T02:41:14;95179.59;;;5.22;86.55
47750;BME280;49810;48.160;10.812;2024-02-28T02:42:17;95185.34;;;5.21;86.63
47750;BME280;49810;48.160;10.812;2024-02-28T02:43:19;95188.19;;;5.18;86.55
47750;BME280;49810;48.160;10.812;2024-02-28T02:44:22;95192.28;;;5.18;86.13
47750;BME280;49810;48.160;10.812;2024-02-28T02:45:24;95183.16;;;5.20;86.92
47750;BME280;49810;48.160;10.812;2024-02-28T02:46:27;95181.41;;;5.17;86.61
47750;BME280;49810;48.160;10.812;2024-02-28T02:47:29;95183.50;;;5.13;86.88
47750;BME280;49810;48.160;10.812;2024-02-28T02:48:32;95187.56;;;5.08;87.03
47750;BME280;49810;48.160;10.812;2024-02-28T02:49:35;95185.72;;;5.14;86.98
47750;BME280;49810;48.160;10.812;2024-02-28T02:50:38;95183.25;;;5.11;87.13
47750;BME280;49810;48.160;10.812;2024-02-28T02:51:40;95182.97;;;5.08;87.27
47750;BME280;49810;48.160;10.812;2024-02-28T02:52:45;95183.97;;;5.11;86.77
47750;BME280;49810;48.160;10.812;2024-02-28T02:53:47;95183.41;;;5.07;86.97
47750;BME280;49810;48.160;10.812;2024-02-28T02:54:52;95183.88;;;5.06;86.87
47750;BME280;49810;48.160;10.812;2024-02-28T02:55:54;95189.00;;;5.09;87.13
47750;BME280;49810;48.160;10.812;2024-02-28T02:56:57;95190.19;;;5.08;86.88
47750;BME280;49810;48.160;10.812;2024-02-28T02:57:59;95193.22;;;5.16;86.51
47750;BME280;49810;48.160;10.812;2024-02-28T02:59:02;95194.75;;;5.07;86.82
47750;BME280;49810;48.160;10.812;2024-02-28T03:00:08;95192.03;;;5.17;86.96
47750;BME280;49810;48.160;10.812;2024-02-28T03:01:11;95192.28;;;5.18;86.22
47750;BME280;49810;48.160;10.812;2024-02-28T03:02:13;95189.28;;;5.11;86.46
47750;BME280;49810;48.160;10.812;2024-02-28T03:03:17;95180.75;;;5.07;86.41
47750;BME280;49810;48.160;10.812;2024-02-28T03:04:19;95188.38;;;5.14;86.12
47750;BME280;49810;48.160;10.812;2024-02-28T03:05:22;95193.66;;;5.14;86.06
47750;BME280;49810;48.160;10.812;2024-02-28T03:06:24;95199.63;;;5.09;86.41
47750;BME280;49810;48.160;10.812;2024-02-28T03:07:27;95195.50;;;5.08;86.43
47750;BME280;49810;48.160;10.812;2024-02-28T03:08:29;95193.50;;;5.03;86.52
47750;BME280;49810;48.160;10.812;2024-02-28T03:09:32;95202.72;;;5.07;86.56
47750;BME280;49810;48.160;10.812;2024-02-28T03:10:37;95201.06;;;5.10;86.38
47750;BME280;49810;48.160;10.812;2024-02-28T03:11:40;95203.91;;;5.07;86.66
47750;BME280;49810;48.160;10.812;2024-02-28T03:12:42;95198.78;;;5.03;86.18
47750;BME280;49810;48.160;10.812;2024-02-28T03:13:45;95208.28;;;5.09;86.55
47750;BME280;49810;48.160;10.812;2024-02-28T03:14:47;95207.00;;;5.05;86.30
47750;BME280;49810;48.160;10.812;2024-02-28T03:15:50;95201.88;;;5.02;86.02
47750;BME280;49810;48.160;10.812;2024-02-28T03:16:52;95209.84;;;5.02;86.58
47750;BME280;49810;48.160;10.812;2024-02-28T03:17:56;95207.19;;;5.02;86.81
47750;BME280;49810;48.160;10.812;2024-02-28T03:18:58;95204.63;;;5.07;86.28
47750;BME280;49810;48.160;10.812;2024-02-28T03:20:01;95206.00;;;5.03;86.63
47750;BME280;49810;48.160;10.812;2024-02-28T03:21:03;95211.75;;;5.01;86.57
47750;BME280;49810;48.160;10.812;2024-02-28T03:22:06;95207.47;;;5.03;86.81
47750;BME280;49810;48.160;10.812;2024-02-28T03:23:09;95212.03;;;5.03;86.66
47750;BME280;49810;48.160;10.812;2024-02-28T03:24:11;95213.50;;;5.04;86.66
47750;BME280;49810;48.160;10.812;2024-02-28T03:25:15;95207.28;;;5.07;86.78
47750;BME280;49810;48.160;10.812;2024-02-28T03:26:18;95208.38;;;5.01;86.56
47750;BME280;49810;48.160;10.812;2024-02-28T03:27:21;95214.41;;;5.01;86.58
47750;BME280;49810;48.160;10.812;2024-02-28T03:28:23;95212.94;;;5.00;86.07
47750;BME280;49810;48.160;10.812;2024-02-28T03:29:26;95218.50;;;5.02;86.81
47750;BME280;49810;48.160;10.812;2024-02-28T03:30:29;95217.06;;;5.01;86.91
47750;BME280;49810;48.160;10.812;2024-02-28T03:31:32;95218.88;;;5.09;87.06
47750;BME280;49810;48.160;10.812;2024-02-28T03:32:34;95221.72;;;5.06;86.63
47750;BME280;49810;48.160;10.812;2024-02-28T03:33:37;95216.34;;;5.01;86.71
47750;BME280;49810;48.160;10.812;2024-02-28T03:34:39;95222.53;;;4.97;86.76
47750;BME280;49810;48.160;10.812;2024-02-28T03:35:42;95221.53;;;4.95;86.31
47750;BME280;49810;48.160;10.812;2024-02-28T03:36:45;95216.59;;;5.03;86.83
47750;BME280;49810;48.160;10.812;2024-02-28T03:37:47;95221.09;;;5.11;86.81
47750;BME280;49810;48.160;10.812;2024-02-28T03:38:50;95221.53;;;5.09;86.40
47750;BME280;49810;48.160;10.812;2024-02-28T03:39:53;95216.59;;;5.03;86.55
47750;BME280;49810;48.160;10.812;2024-02-28T03:40:56;95223.66;;;5.06;86.56
47750;BME280;49810;48.160;10.812;2024-02-28T03:41:59;95225.84;;;5.07;86.72
47750;BME280;49810;48.160;10.812;2024-02-28T03:43:03;95227.03;;;5.06;86.81
47750;BME280;49810;48.160;10.812;2024-02-28T03:44:05;95223.66;;;5.06;86.67
47750;BME280;49810;48.160;10.812;2024-02-28T03:45:09;95226.66;;;4.98;86.81
47750;BME280;49810;48.160;10.812;2024-02-28T03:46:11;95233.69;;;5.02;86.84
47750;BME280;49810;48.160;10.812;2024-02-28T03:47:14;95234.41;;;5.02;87.03
47750;BME280;49810;48.160;10.812;2024-02-28T03:48:16;95228.84;;;5.00;86.93
47750;BME280;49810;48.160;10.812;2024-02-28T03:49:19;95234.34;;;4.97;86.88
47750;BME280;49810;48.160;10.812;2024-02-28T03:50:21;95231.94;;;4.98;87.41
47750;BME280;49810;48.160;10.812;2024-02-28T03:51:25;95228.03;;;4.94;87.32
47750;BME280;49810;48.160;10.812;2024-02-28T03:52:27;95232.41;;;4.97;87.11
47750;BME280;49810;48.160;10.812;2024-02-28T03:53:31;95228.09;;;4.99;86.97
47750;BME280;49810;48.160;10.812;2024-02-28T03:54:34;95234.59;;;4.98;87.08
47750;BME280;49810;48.160;10.812;2024-02-28T03:55:37;95234.91;;;5.01;87.03
47750;BME280;49810;48.160;10.812;2024-02-28T03:56:40;95239.28;;;5.03;87.12
47750;BME280;49810;48.160;10.812;2024-02-28T03:57:46;95240.00;;;5.04;87.26
47750;BME280;49810;48.160;10.812;2024-02-28T03:58:49;95242.56;;;4.98;87.16
47750;BME280;49810;48.160;10.812;2024-02-28T03:59:52;95243.59;;;5.16;86.95
47750;BME280;49810;48.160;10.812;2024-02-28T04:00:54;95248.78;;;5.10;87.04
47750;BME280;49810;48.160;10.812;2024-02-28T04:01:57;95247.03;;;5.07;87.72
47750;BME280;49810;48.160;10.812;2024-02-28T04:02:59;95246.59;;;5.08;86.93
47750;BME280;49810;48.160;10.812;2024-02-28T04:04:03;95254.16;;;5.01;87.32
47750;BME280;49810;48.160;10.812;2024-02-28T04:05:06;95251.34;;;5.04;87.24
47750;BME280;49810;48.160;10.812;2024-02-28T04:06:09;95251.25;;;4.99;87.24
47750;BME280;49810;48.160;10.812;2024-02-28T04:07:11;95254.72;;;5.05;87.30
47750;BME280;49810;48.160;10.812;2024-02-28T04:08:14;95255.91;;;5.04;87.26
47750;BME280;49810;48.160;10.812;2024-02-28T04:09:17;95253.91;;;4.99;87.23
47750;BME280;49810;48.160;10.812;2024-02-28T04:10:19;95252.59;;;4.94;87.41
47750;BME280;49810;48.160;10.812;2024-02-28T04:11:21;95238.06;;;4.90;87.60
47750;BME280;49810;48.160;10.812;2024-02-28T04:12:24;95244.19;;;4.96;87.54
47750;BME280;49810;48.160;10.812;2024-02-28T04:13:28;95249.31;;;4.99;87.45
47750;BME280;49810;48.160;10.812;2024-02-28T04:14:31;95247.28;;;4.94;87.46
47750;BME280;49810;48.160;10.812;2024-02-28T04:15:33;95245.84;;;4.93;87.84
47750;BME280;49810;48.160;10.812;2024-02-28T04:16:41;95250.69;;;4.95;87.57
47750;BME280;49810;48.160;10.812;2024-02-28T04:17:43;95251.31;;;4.90;87.53
47750;BME280;49810;48.160;10.812;2024-02-28T04:18:47;95256.63;;;4.90;88.14
47750;BME280;49810;48.160;10.812;2024-02-28T04:19:49;95250.56;;;4.89;88.11
47750;BME280;49810;48.160;10.812;2024-02-28T04:20:52;95256.06;;;4.86;88.14
47750;BME280;49810;48.160;10.812;2024-02-28T04:21:54;95254.59;;;4.85;88.23
47750;BME280;49810;48.160;10.812;2024-02-28T04:22:58;95255.59;;;4.88;88.36
47750;BME280;49810;48.160;10.812;2024-02-28T04:24:02;95248.47;;;4.79;88.11
47750;BME280;49810;48.160;10.812;2024-02-28T04:25:07;95258.00;;;4.86;88.01
47750;BME280;49810;48.160;10.812;2024-02-28T04:26:10;95260.72;;;4.91;88.26
47750;BME280;49810;48.160;10.812;2024-02-28T04:27:13;95255.34;;;4.86;88.03
47750;BME280;49810;48.160;10.812;2024-02-28T04:28:15;95247.16;;;4.74;88.26
47750;BME280;49810;48.160;10.812;2024-02-28T04:29:18;95263.19;;;4.94;88.30
47750;BME280;49810;48.160;10.812;2024-02-28T04:30:21;95262.38;;;4.88;88.13
47750;BME280;49810;48.160;10.812;2024-02-28T04:31:23;95263.28;;;4.86;88.55
47750;BME280;49810;48.160;10.812;2024-02-28T04:32:27;95262.28;;;4.83;88.35
47750;BME280;49810;48.160;10.812;2024-02-28T04:33:29;95263.91;;;4.81;88.35
47750;BME280;49810;48.160;10.812;2024-02-28T04:34:32;95258.88;;;4.82;88.25
47750;BME280;49810;48.160;10.812;2024-02-28T04:35:34;95262.03;;;4.96;88.95
47750;BME280;49810;48.160;10.812;2024-02-28T04:36:36;95267.59;;;4.97;88.39
47750;BME280;49810;48.160;10.812;2024-02-28T04:37:39;95271.44;;;4.97;88.66
47750;BME280;49810;48.160;10.812;2024-02-28T04:38:41;95265.59;;;4.93;88.81
47750;BME280;49810;48.160;10.812;2024-02-28T04:39:44;95269.88;;;4.90;88.62
47750;BME280;49810;48.160;10.812;2024-02-28T04:40:46;95260.47;;;4.89;88.13
47750;BME280;49810;48.160;10.812;2024-02-28T04:41:51;95265.00;;;4.88;88.09
47750;BME280;49810;48.160;10.812;2024-02-28T04:42:53;95273.72;;;4.89;88.37
47750;BME280;49810;48.160;10.812;2024-02-28T04:43:56;95268.84;;;4.88;88.20
47750;BME280;49810;48.160;10.812;2024-02-28T04:44:59;95271.72;;;4.98;89.44
47750;BME280;49810;48.160;10.812;2024-02-28T04:46:03;95279.59;;;5.07;89.80
47750;BME280;49810;48.160;10.812;2024-02-28T04:47:05;95272.66;;;5.10;89.74
47750;BME280;49810;48.160;10.812;2024-02-28T04:48:08;95275.19;;;5.04;89.45
47750;BME280;49810;48.160;10.812;2024-02-28T04:49:10;95267.50;;;4.92;88.28
47750;BME280;49810;48.160;10.812;2024-02-28T04:50:14;95275.94;;;5.05;89.58
47750;BME280;49810;48.160;10.812;2024-02-28T04:51:17;95268.72;;;5.06;89.42
47750;BME280;49810;48.160;10.812;2024-02-28T04:52:20;95271.38;;;5.06;88.97
47750;BME280;49810;48.160;10.812;2024-02-28T04:53:25;95277.94;;;4.96;88.81
47750;BME280;49810;48.160;10.812;2024-02-28T04:54:28;95285.97;;;5.01;88.51
47750;BME280;49810;48.160;10.812;2024-02-28T04:55:30;95282.50;;;4.95;88.08
47750;BME280;49810;48.160;10.812;2024-02-28T04:56:33;95278.19;;;4.97;88.09
47750;BME280;49810;48.160;10.812;2024-02-28T04:57:35;95277.81;;;4.90;88.08
47750;BME280;49810;48.160;10.812;2024-02-28T04:58:38;95283.31;;;4.87;88.31
47750;BME280;49810;48.160;10.812;2024-02-28T04:59:41;95289.69;;;4.94;87.93
47750;BME280;49810;48.160;10.812;2024-02-28T05:00:46;95289.44;;;4.93;88.01
47750;BME280;49810;48.160;10.812;2024-02-28T05:01:48;95297.56;;;4.89;88.47
47750;BME280;49810;48.160;10.812;2024-02-28T05:02:51;95286.66;;;4.87;88.48
47750;BME280;49810;48.160;10.812;2024-02-28T05:03:54;95293.59;;;4.84;88.53
47750;BME280;49810;48.160;10.812;2024-02-28T05:04:57;95282.38;;;4.89;88.36
47750;BME280;49810;48.160;10.812;2024-02-28T05:06:00;95291.53;;;4.88;88.59
47750;BME280;49810;48.160;10.812;2024-02-28T05:07:06;95297.28;;;4.87;88.97
47750;BME280;49810;48.160;10.812;2024-02-28T05:08:09;95295.81;;;4.86;88.79
47750;BME280;49810;48.160;10.812;2024-02-28T05:09:12;95298.56;;;4.92;88.59
47750;BME280;49810;48.160;10.812;2024-02-28T05:10:14;95299.03;;;4.90;88.29
47750;BME280;49810;48.160;10.812;2024-02-28T05:11:17;95306.09;;;4.93;88.21
47750;BME280;49810;48.160;10.812;2024-02-28T05:12:19;95299.47;;;4.88;88.47
47750;BME280;49810;48.160;10.812;2024-02-28T05:13:23;95304.06;;;4.88;88.44
47750;BME280;49810;48.160;10.812;2024-02-28T05:14:26;95299.66;;;4.85;88.41
47750;BME280;49810;48.160;10.812;2024-02-28T05:15:29;95304.78;;;4.88;87.97
47750;BME280;49810;48.160;10.812;2024-02-28T05:16:32;95300.94;;;4.89;88.36
47750;BME280;49810;48.160;10.812;2024-02-28T05:17:35;95315.38;;;4.88;88.43
47750;BME280;49810;48.160;10.812;2024-02-28T05:18:37;95306.22;;;4.89;88.38
47750;BME280;49810;48.160;10.812;2024-02-28T05:19:40;95312.50;;;5.01;88.50
47750;BME280;49810;48.160;10.812;2024-02-28T05:20:43;95317.97;;;4.97;88.03
47750;BME280;49810;48.160;10.812;2024-02-28T05:21:46;95317.84;;;4.92;88.15
47750;BME280;49810;48.160;10.812;2024-02-28T05:22:48;95318.84;;;4.94;88.39
47750;BME280;49810;48.160;10.812;2024-02-28T05:23:51;95321.91;;;5.02;88.08
47750;BME280;49810;48.160;10.812;2024-02-28T05:24:53;95321.25;;;4.93;88.14
47750;BME280;49810;48.160;10.812;2024-02-28T05:25:56;95314.97;;;4.81;88.26
47750;BME280;49810;48.160;10.812;2024-02-28T05:26:59;95321.91;;;4.78;88.08
47750;BME280;49810;48.160;10.812;2024-02-28T05:28:02;95328.22;;;4.81;88.20
47750;BME280;49810;48.160;10.812;2024-02-28T05:29:05;95334.28;;;4.82;88.56
47750;BME280;49810;48.160;10.812;2024-02-28T05:30:09;95325.50;;;4.76;88.57
47750;BME280;49810;48.160;10.812;2024-02-28T05:31:22;95331.47;;;4.85;88.53
47750;BME280;49810;48.160;10.812;2024-02-28T05:32:27;95338.66;;;4.84;88.48
47750;BME280;49810;48.160;10.812;2024-02-28T05:33:29;95331.34;;;4.79;88.14